sensor_id;sensor_type;location;lat;lon;timestamp;P1;durP1;ratioP1;P2;durP2;ratioP2
3561;SDS011;1795;52.074;4.754;2023-02-28T00:01:33;3.20;;;2.90;;
3561;SDS011;1795;52.074;4.754;2023-02-28T00:04:01;3.28;;;2.50;;
3561;SDS011;1795;52.074;4.754;2023-02-28T00:06:29;3.88;;;3.50;;
3561;SDS011;1795;52.074;4.754;2023-02-28T00:08:59;3.77;;;3.40;;
3561;SDS011;1795;52.074;4.754;2023-02-28T00:11:27;3.35;;;2.92;;
3561;SDS011;1795;52.074;4.754;2023-02-28T00:13:55;2.70;;;2.40;;
3561;SDS011;1795;52.074;4.754;2023-02-28T00:16:23;4.10;;;2.60;;
3561;SDS011;1795;52.074;4.754;2023-02-28T00:18:51;2.25;;;2.13;;
3561;SDS011;1795;52.074;4.754;2023-02-28T00:21:20;3.40;;;3.10;;
3561;SDS011;1795;52.074;4.754;2023-02-28T00:23:48;3.42;;;3.08;;
3561;SDS011;1795;52.074;4.754;2023-02-28T00:26:17;2.87;;;2.67;;
3561;SDS011;1795;52.074;4.754;2023-02-28T00:28:47;3.40;;;2.50;;
3561;SDS011;1795;52.074;4.754;2023-02-28T00:31:15;4.47;;;3.40;;
3561;SDS011;1795;52.074;4.754;2023-02-28T00:33:43;4.15;;;3.00;;
3561;SDS011;1795;52.074;4.754;2023-02-28T00:36:11;3.10;;;2.90;;
3561;SDS011;1795;52.074;4.754;2023-02-28T00:38:40;4.20;;;3.88;;
3561;SDS011;1795;52.074;4.754;2023-02-28T00:41:08;4.60;;;3.75;;
3561;SDS011;1795;52.074;4.754;2023-02-28T00:43:38;3.78;;;3.47;;
3561;SDS011;1795;52.074;4.754;2023-02-28T00:46:07;3.55;;;3.25;;
3561;SDS011;1795;52.074;4.754;2023-02-28T00:48:36;4.68;;;3.40;;
3561;SDS011;1795;52.074;4.754;2023-02-28T00:51:04;4.20;;;3.20;;
3561;SDS011;1795;52.074;4.754;2023-02-28T00:53:32;3.97;;;3.30;;
3561;SDS011;1795;52.074;4.754;2023-02-28T00:56:00;3.65;;;3.35;;
3561;SDS011;1795;52.074;4.754;2023-02-28T00:58:30;3.60;;;3.30;;
3561;SDS011;1795;52.074;4.754;2023-02-28T01:01:00;4.82;;;3.72;;
3561;SDS011;1795;52.074;4.754;2023-02-28T01:03:28;5.07;;;3.17;;
3561;SDS011;1795;52.074;4.754;2023-02-28T01:05:56;3.30;;;3.10;;
3561;SDS011;1795;52.074;4.754;2023-02-28T01:08:24;3.60;;;2.95;;
3561;SDS011;1795;52.074;4.754;2023-02-28T01:10:53;4.00;;;3.70;;
3561;SDS011;1795;52.074;4.754;2023-02-28T01:13:21;5.55;;;3.30;;
3561;SDS011;1795;52.074;4.754;2023-02-28T01:15:50;2.80;;;2.60;;
3561;SDS011;1795;52.074;4.754;2023-02-28T01:18:21;3.22;;;2.92;;
3561;SDS011;1795;52.074;4.754;2023-02-28T01:20:50;2.97;;;2.60;;
3561;SDS011;1795;52.074;4.754;2023-02-28T01:23:19;2.70;;;2.22;;
3561;SDS011;1795;52.074;4.754;2023-02-28T01:25:47;4.90;;;3.10;;
3561;SDS011;1795;52.074;4.754;2023-02-28T01:28:16;4.32;;;3.92;;
3561;SDS011;1795;52.074;4.754;2023-02-28T01:30:47;3.00;;;2.70;;
3561;SDS011;1795;52.074;4.754;2023-02-28T01:33:15;4.80;;;2.85;;
3561;SDS011;1795;52.074;4.754;2023-02-28T01:35:44;3.72;;;2.70;;
3561;SDS011;1795;52.074;4.754;2023-02-28T01:38:13;2.60;;;2.40;;
3561;SDS011;1795;52.074;4.754;2023-02-28T01:40:48;3.00;;;2.65;;
3561;SDS011;1795;52.074;4.754;2023-02-28T01:43:19;3.38;;;3.08;;
3561;SDS011;1795;52.074;4.754;2023-02-28T01:45:50;4.50;;;3.10;;
3561;SDS011;1795;52.074;4.754;2023-02-28T01:48:19;2.60;;;2.40;;
3561;SDS011;1795;52.074;4.754;2023-02-28T01:50:51;3.10;;;2.80;;
3561;SDS011;1795;52.074;4.754;2023-02-28T01:53:22;4.18;;;2.63;;
3561;SDS011;1795;52.074;4.754;2023-02-28T01:55:53;2.85;;;2.65;;
3561;SDS011;1795;52.074;4.754;2023-02-28T01:58:22;3.70;;;3.40;;
3561;SDS011;1795;52.074;4.754;2023-02-28T02:00:50;3.40;;;3.10;;
3561;SDS011;1795;52.074;4.754;2023-02-28T02:03:19;3.33;;;3.08;;
3561;SDS011;1795;52.074;4.754;2023-02-28T02:05:47;3.83;;;3.42;;
3561;SDS011;1795;52.074;4.754;2023-02-28T02:08:18;4.10;;;3.03;;
3561;SDS011;1795;52.074;4.754;2023-02-28T02:10:48;3.38;;;3.08;;
3561;SDS011;1795;52.074;4.754;2023-02-28T02:13:24;4.53;;;2.83;;
3561;SDS011;1795;52.074;4.754;2023-02-28T02:16:04;3.53;;;3.33;;
3561;SDS011;1795;52.074;4.754;2023-02-28T02:18:43;3.10;;;2.80;;
3561;SDS011;1795;52.074;4.754;2023-02-28T02:21:17;2.90;;;2.70;;
3561;SDS011;1795;52.074;4.754;2023-02-28T02:24:29;2.80;;;2.60;;
3561;SDS011;1795;52.074;4.754;2023-02-28T02:33:34;3.97;;;3.67;;
3561;SDS011;1795;52.074;4.754;2023-02-28T02:36:25;4.28;;;3.88;;
3561;SDS011;1795;52.074;4.754;2023-02-28T02:38:58;3.20;;;3.00;;
3561;SDS011;1795;52.074;4.754;2023-02-28T02:41:34;4.20;;;3.40;;
3561;SDS011;1795;52.074;4.754;2023-02-28T02:44:06;3.15;;;2.85;;
3561;SDS011;1795;52.074;4.754;2023-02-28T02:46:40;4.28;;;3.88;;
3561;SDS011;1795;52.074;4.754;2023-02-28T02:49:12;4.30;;;4.00;;
3561;SDS011;1795;52.074;4.754;2023-02-28T02:51:45;4.05;;;3.60;;
3561;SDS011;1795;52.074;4.754;2023-02-28T02:54:15;3.90;;;2.70;;
3561;SDS011;1795;52.074;4.754;2023-02-28T02:56:48;4.30;;;2.97;;
3561;SDS011;1795;52.074;4.754;2023-02-28T02:59:18;3.42;;;3.22;;
3561;SDS011;1795;52.074;4.754;2023-02-28T03:01:50;4.45;;;4.05;;
3561;SDS011;1795;52.074;4.754;2023-02-28T03:04:21;4.85;;;3.50;;
3561;SDS011;1795;52.074;4.754;2023-02-28T03:06:52;3.78;;;3.00;;
3561;SDS011;1795;52.074;4.754;2023-02-28T03:09:20;4.10;;;3.00;;
3561;SDS011;1795;52.074;4.754;2023-02-28T03:11:49;6.10;;;3.42;;
3561;SDS011;1795;52.074;4.754;2023-02-28T03:14:25;3.53;;;3.20;;
3561;SDS011;1795;52.074;4.754;2023-02-28T03:17:05;3.30;;;3.10;;
3561;SDS011;1795;52.074;4.754;2023-02-28T03:19:56;3.95;;;3.58;;
3561;SDS011;1795;52.074;4.754;2023-02-28T03:22:49;3.33;;;2.95;;
3561;SDS011;1795;52.074;4.754;2023-02-28T03:25:22;3.00;;;2.70;;
3561;SDS011;1795;52.074;4.754;2023-02-28T03:28:04;3.90;;;3.03;;
3561;SDS011;1795;52.074;4.754;2023-02-28T03:30:39;4.13;;;3.30;;
3561;SDS011;1795;52.074;4.754;2023-02-28T03:33:14;4.80;;;4.00;;
3561;SDS011;1795;52.074;4.754;2023-02-28T03:35:45;3.78;;;3.47;;
3561;SDS011;1795;52.074;4.754;2023-02-28T03:38:19;3.70;;;3.28;;
3561;SDS011;1795;52.074;4.754;2023-02-28T03:40:53;4.55;;;3.50;;
3561;SDS011;1795;52.074;4.754;2023-02-28T03:43:26;4.87;;;3.10;;
3561;SDS011;1795;52.074;4.754;2023-02-28T03:45:59;4.50;;;3.53;;
3561;SDS011;1795;52.074;4.754;2023-02-28T03:48:34;3.80;;;3.50;;
3561;SDS011;1795;52.074;4.754;2023-02-28T03:51:07;6.43;;;4.80;;
3561;SDS011;1795;52.074;4.754;2023-02-28T03:53:41;5.63;;;4.43;;
3561;SDS011;1795;52.074;4.754;2023-02-28T03:56:13;4.10;;;3.22;;
3561;SDS011;1795;52.074;4.754;2023-02-28T03:58:47;4.32;;;3.38;;
3561;SDS011;1795;52.074;4.754;2023-02-28T04:01:21;4.00;;;3.60;;
3561;SDS011;1795;52.074;4.754;2023-02-28T04:03:54;3.95;;;3.55;;
3561;SDS011;1795;52.074;4.754;2023-02-28T04:06:22;4.70;;;4.30;;
3561;SDS011;1795;52.074;4.754;2023-02-28T04:08:53;5.38;;;4.60;;
3561;SDS011;1795;52.074;4.754;2023-02-28T04:11:22;5.10;;;3.70;;
3561;SDS011;1795;52.074;4.754;2023-02-28T04:13:55;5.07;;;4.20;;
3561;SDS011;1795;52.074;4.754;2023-02-28T04:16:23;4.10;;;3.80;;
3561;SDS011;1795;52.074;4.754;2023-02-28T04:19:01;4.28;;;3.72;;
3561;SDS011;1795;52.074;4.754;2023-02-28T04:21:31;5.10;;;4.22;;
3561;SDS011;1795;52.074;4.754;2023-02-28T04:24:02;6.18;;;4.82;;
3561;SDS011;1795;52.074;4.754;2023-02-28T04:26:31;4.65;;;4.10;;
3561;SDS011;1795;52.074;4.754;2023-02-28T04:29:01;4.13;;;3.63;;
3561;SDS011;1795;52.074;4.754;2023-02-28T04:31:31;4.70;;;4.10;;
3561;SDS011;1795;52.074;4.754;2023-02-28T04:33:59;5.47;;;4.40;;
3561;SDS011;1795;52.074;4.754;2023-02-28T04:36:28;4.95;;;4.55;;
3561;SDS011;1795;52.074;4.754;2023-02-28T04:38:56;5.07;;;4.68;;
3561;SDS011;1795;52.074;4.754;2023-02-28T04:41:25;6.90;;;5.10;;
3561;SDS011;1795;52.074;4.754;2023-02-28T04:43:57;5.35;;;4.85;;
3561;SDS011;1795;52.074;4.754;2023-02-28T04:46:26;7.97;;;5.03;;
3561;SDS011;1795;52.074;4.754;2023-02-28T04:48:54;6.65;;;5.10;;
3561;SDS011;1795;52.074;4.754;2023-02-28T04:51:22;5.40;;;4.50;;
3561;SDS011;1795;52.074;4.754;2023-02-28T04:53:50;8.07;;;5.90;;
3561;SDS011;1795;52.074;4.754;2023-02-28T04:56:19;6.80;;;6.10;;
3561;SDS011;1795;52.074;4.754;2023-02-28T04:58:49;5.88;;;5.38;;
3561;SDS011;1795;52.074;4.754;2023-02-28T05:01:20;5.75;;;5.25;;
3561;SDS011;1795;52.074;4.754;2023-02-28T05:03:51;7.63;;;5.07;;
3561;SDS011;1795;52.074;4.754;2023-02-28T05:06:20;5.30;;;4.80;;
3561;SDS011;1795;52.074;4.754;2023-02-28T05:08:50;7.00;;;5.47;;
3561;SDS011;1795;52.074;4.754;2023-02-28T05:11:19;7.13;;;5.70;;
3561;SDS011;1795;52.074;4.754;2023-02-28T05:13:51;5.57;;;5.07;;
3561;SDS011;1795;52.074;4.754;2023-02-28T05:16:19;7.93;;;5.40;;
3561;SDS011;1795;52.074;4.754;2023-02-28T05:18:48;6.75;;;4.90;;
3561;SDS011;1795;52.074;4.754;2023-02-28T05:21:23;5.75;;;5.15;;
3561;SDS011;1795;52.074;4.754;2023-02-28T05:23:54;7.00;;;5.13;;
3561;SDS011;1795;52.074;4.754;2023-02-28T05:26:24;5.80;;;5.00;;
3561;SDS011;1795;52.074;4.754;2023-02-28T05:28:54;8.07;;;6.07;;
3561;SDS011;1795;52.074;4.754;2023-02-28T05:31:23;6.68;;;5.70;;
3561;SDS011;1795;52.074;4.754;2023-02-28T05:33:51;7.10;;;6.30;;
3561;SDS011;1795;52.074;4.754;2023-02-28T05:36:19;7.70;;;4.80;;
3561;SDS011;1795;52.074;4.754;2023-02-28T05:38:49;7.32;;;5.78;;
3561;SDS011;1795;52.074;4.754;2023-02-28T05:41:18;7.28;;;5.60;;
3561;SDS011;1795;52.074;4.754;2023-02-28T05:43:47;7.20;;;6.60;;
3561;SDS011;1795;52.074;4.754;2023-02-28T05:46:17;7.97;;;6.88;;
3561;SDS011;1795;52.074;4.754;2023-02-28T05:48:46;6.13;;;5.50;;
3561;SDS011;1795;52.074;4.754;2023-02-28T05:51:15;8.43;;;6.10;;
3561;SDS011;1795;52.074;4.754;2023-02-28T05:53:43;6.83;;;6.17;;
3561;SDS011;1795;52.074;4.754;2023-02-28T05:56:11;8.60;;;6.38;;
3561;SDS011;1795;52.074;4.754;2023-02-28T05:58:39;6.90;;;6.22;;
3561;SDS011;1795;52.074;4.754;2023-02-28T06:01:22;7.80;;;7.00;;
3561;SDS011;1795;52.074;4.754;2023-02-28T06:03:52;7.30;;;6.10;;
3561;SDS011;1795;52.074;4.754;2023-02-28T06:06:21;6.40;;;5.80;;
3561;SDS011;1795;52.074;4.754;2023-02-28T06:08:49;6.00;;;5.40;;
3561;SDS011;1795;52.074;4.754;2023-02-28T06:11:17;6.72;;;5.50;;
3561;SDS011;1795;52.074;4.754;2023-02-28T06:13:46;7.22;;;6.05;;
3561;SDS011;1795;52.074;4.754;2023-02-28T06:16:14;7.07;;;6.32;;
3561;SDS011;1795;52.074;4.754;2023-02-28T06:18:44;7.90;;;6.38;;
3561;SDS011;1795;52.074;4.754;2023-02-28T06:21:12;5.85;;;5.25;;
3561;SDS011;1795;52.074;4.754;2023-02-28T06:23:41;5.50;;;5.10;;
3561;SDS011;1795;52.074;4.754;2023-02-28T06:26:10;5.20;;;4.80;;
3561;SDS011;1795;52.074;4.754;2023-02-28T06:28:38;5.30;;;4.80;;
3561;SDS011;1795;52.074;4.754;2023-02-28T06:31:07;5.60;;;5.10;;
3561;SDS011;1795;52.074;4.754;2023-02-28T06:33:36;6.40;;;5.00;;
3561;SDS011;1795;52.074;4.754;2023-02-28T06:36:07;6.45;;;4.80;;
3561;SDS011;1795;52.074;4.754;2023-02-28T06:38:36;5.43;;;4.80;;
3561;SDS011;1795;52.074;4.754;2023-02-28T06:41:04;5.70;;;5.00;;
3561;SDS011;1795;52.074;4.754;2023-02-28T06:43:34;6.07;;;4.40;;
3561;SDS011;1795;52.074;4.754;2023-02-28T06:46:06;5.30;;;4.80;;
3561;SDS011;1795;52.074;4.754;2023-02-28T06:48:35;6.60;;;4.78;;
3561;SDS011;1795;52.074;4.754;2023-02-28T06:51:04;4.80;;;4.40;;
3561;SDS011;1795;52.074;4.754;2023-02-28T06:53:35;4.75;;;4.10;;
3561;SDS011;1795;52.074;4.754;2023-02-28T06:56:03;4.80;;;4.20;;
3561;SDS011;1795;52.074;4.754;2023-02-28T06:58:32;4.22;;;3.70;;
3561;SDS011;1795;52.074;4.754;2023-02-28T07:01:01;4.60;;;4.15;;
3561;SDS011;1795;52.074;4.754;2023-02-28T07:03:30;5.70;;;4.90;;
3561;SDS011;1795;52.074;4.754;2023-02-28T07:05:59;5.30;;;4.63;;
3561;SDS011;1795;52.074;4.754;2023-02-28T07:08:29;4.65;;;4.20;;
3561;SDS011;1795;52.074;4.754;2023-02-28T07:10:58;4.38;;;3.97;;
3561;SDS011;1795;52.074;4.754;2023-02-28T07:13:26;4.60;;;4.10;;
3561;SDS011;1795;52.074;4.754;2023-02-28T07:15:54;6.18;;;4.30;;
3561;SDS011;1795;52.074;4.754;2023-02-28T07:18:23;6.07;;;4.60;;
3561;SDS011;1795;52.074;4.754;2023-02-28T07:20:52;5.00;;;4.60;;
3561;SDS011;1795;52.074;4.754;2023-02-28T07:23:20;5.57;;;5.07;;
3561;SDS011;1795;52.074;4.754;2023-02-28T07:25:50;4.63;;;4.18;;
3561;SDS011;1795;52.074;4.754;2023-02-28T07:28:19;6.00;;;4.63;;
3561;SDS011;1795;52.074;4.754;2023-02-28T07:30:47;4.90;;;4.50;;
3561;SDS011;1795;52.074;4.754;2023-02-28T07:33:15;6.80;;;4.68;;
3561;SDS011;1795;52.074;4.754;2023-02-28T07:35:43;6.60;;;5.43;;
3561;SDS011;1795;52.074;4.754;2023-02-28T07:38:11;6.10;;;5.50;;
3561;SDS011;1795;52.074;4.754;2023-02-28T07:40:40;5.82;;;5.22;;
3561;SDS011;1795;52.074;4.754;2023-02-28T07:43:09;5.30;;;4.60;;
3561;SDS011;1795;52.074;4.754;2023-02-28T07:45:37;5.35;;;4.68;;
3561;SDS011;1795;52.074;4.754;2023-02-28T07:48:05;5.32;;;4.93;;
3561;SDS011;1795;52.074;4.754;2023-02-28T07:50:36;5.20;;;4.90;;
3561;SDS011;1795;52.074;4.754;2023-02-28T07:53:04;5.70;;;5.18;;
3561;SDS011;1795;52.074;4.754;2023-02-28T07:55:32;6.20;;;5.70;;
3561;SDS011;1795;52.074;4.754;2023-02-28T07:58:00;5.82;;;5.32;;
3561;SDS011;1795;52.074;4.754;2023-02-28T08:00:29;6.05;;;4.20;;
3561;SDS011;1795;52.074;4.754;2023-02-28T08:02:58;5.20;;;4.80;;
3561;SDS011;1795;52.074;4.754;2023-02-28T08:05:26;5.18;;;4.68;;
3561;SDS011;1795;52.074;4.754;2023-02-28T08:07:54;5.53;;;5.05;;
3561;SDS011;1795;52.074;4.754;2023-02-28T08:10:22;5.68;;;5.05;;
3561;SDS011;1795;52.074;4.754;2023-02-28T08:12:51;4.97;;;4.47;;
3561;SDS011;1795;52.074;4.754;2023-02-28T08:15:19;5.22;;;4.50;;
3561;SDS011;1795;52.074;4.754;2023-02-28T08:17:48;5.00;;;4.60;;
3561;SDS011;1795;52.074;4.754;2023-02-28T08:20:16;5.00;;;4.60;;
3561;SDS011;1795;52.074;4.754;2023-02-28T08:22:44;5.70;;;5.20;;
3561;SDS011;1795;52.074;4.754;2023-02-28T08:25:12;6.55;;;5.90;;
3561;SDS011;1795;52.074;4.754;2023-02-28T08:27:41;6.20;;;5.60;;
3561;SDS011;1795;52.074;4.754;2023-02-28T08:30:09;5.40;;;5.00;;
3561;SDS011;1795;52.074;4.754;2023-02-28T08:32:38;6.13;;;5.18;;
3561;SDS011;1795;52.074;4.754;2023-02-28T08:35:08;6.43;;;5.53;;
3561;SDS011;1795;52.074;4.754;2023-02-28T08:37:36;6.20;;;4.97;;
3561;SDS011;1795;52.074;4.754;2023-02-28T08:40:05;6.40;;;5.75;;
3561;SDS011;1795;52.074;4.754;2023-02-28T08:42:35;6.90;;;6.30;;
3561;SDS011;1795;52.074;4.754;2023-02-28T08:45:03;7.07;;;5.20;;
3561;SDS011;1795;52.074;4.754;2023-02-28T08:47:32;6.80;;;5.90;;
3561;SDS011;1795;52.074;4.754;2023-02-28T08:50:00;6.10;;;5.20;;
3561;SDS011;1795;52.074;4.754;2023-02-28T08:52:29;5.72;;;5.10;;
3561;SDS011;1795;52.074;4.754;2023-02-28T08:54:58;6.87;;;6.17;;
3561;SDS011;1795;52.074;4.754;2023-02-28T08:57:26;7.78;;;6.70;;
3561;SDS011;1795;52.074;4.754;2023-02-28T08:59:54;8.90;;;6.35;;
3561;SDS011;1795;52.074;4.754;2023-02-28T09:02:22;6.95;;;5.95;;
3561;SDS011;1795;52.074;4.754;2023-02-28T09:04:50;6.72;;;5.93;;
3561;SDS011;1795;52.074;4.754;2023-02-28T09:07:18;6.60;;;5.80;;
3561;SDS011;1795;52.074;4.754;2023-02-28T09:09:47;6.45;;;5.85;;
3561;SDS011;1795;52.074;4.754;2023-02-28T09:12:21;7.40;;;5.93;;
3561;SDS011;1795;52.074;4.754;2023-02-28T09:14:50;6.32;;;5.70;;
3561;SDS011;1795;52.074;4.754;2023-02-28T09:17:18;7.35;;;5.45;;
3561;SDS011;1795;52.074;4.754;2023-02-28T09:19:47;7.80;;;5.95;;
3561;SDS011;1795;52.074;4.754;2023-02-28T09:22:15;7.00;;;5.55;;
3561;SDS011;1795;52.074;4.754;2023-02-28T09:24:43;6.53;;;5.93;;
3561;SDS011;1795;52.074;4.754;2023-02-28T09:27:13;8.65;;;5.90;;
3561;SDS011;1795;52.074;4.754;2023-02-28T09:29:41;9.40;;;6.28;;
3561;SDS011;1795;52.074;4.754;2023-02-28T09:32:09;7.05;;;5.90;;
3561;SDS011;1795;52.074;4.754;2023-02-28T09:34:37;6.45;;;5.85;;
3561;SDS011;1795;52.074;4.754;2023-02-28T09:37:05;6.03;;;5.53;;
3561;SDS011;1795;52.074;4.754;2023-02-28T09:39:33;6.38;;;5.78;;
3561;SDS011;1795;52.074;4.754;2023-02-28T09:42:01;9.73;;;5.80;;
3561;SDS011;1795;52.074;4.754;2023-02-28T09:44:33;7.20;;;6.60;;
3561;SDS011;1795;52.074;4.754;2023-02-28T09:47:06;7.40;;;6.20;;
3561;SDS011;1795;52.074;4.754;2023-02-28T09:49:41;6.90;;;5.85;;
3561;SDS011;1795;52.074;4.754;2023-02-28T09:52:14;7.50;;;5.97;;
3561;SDS011;1795;52.074;4.754;2023-02-28T09:54:45;7.97;;;6.53;;
3561;SDS011;1795;52.074;4.754;2023-02-28T09:57:15;8.30;;;6.10;;
3561;SDS011;1795;52.074;4.754;2023-02-28T09:59:54;6.90;;;6.13;;
3561;SDS011;1795;52.074;4.754;2023-02-28T10:02:40;8.43;;;6.97;;
3561;SDS011;1795;52.074;4.754;2023-02-28T10:05:17;8.68;;;5.90;;
3561;SDS011;1795;52.074;4.754;2023-02-28T10:07:50;6.70;;;5.60;;
3561;SDS011;1795;52.074;4.754;2023-02-28T10:10:28;7.30;;;5.20;;
3561;SDS011;1795;52.074;4.754;2023-02-28T10:13:02;6.78;;;5.25;;
3561;SDS011;1795;52.074;4.754;2023-02-28T10:15:35;6.22;;;5.50;;
3561;SDS011;1795;52.074;4.754;2023-02-28T10:18:04;6.05;;;5.45;;
3561;SDS011;1795;52.074;4.754;2023-02-28T10:20:39;6.10;;;5.50;;
3561;SDS011;1795;52.074;4.754;2023-02-28T10:23:09;5.10;;;4.70;;
3561;SDS011;1795;52.074;4.754;2023-02-28T10:25:42;5.25;;;4.85;;
3561;SDS011;1795;52.074;4.754;2023-02-28T10:28:14;6.90;;;4.75;;
3561;SDS011;1795;52.074;4.754;2023-02-28T10:30:46;4.97;;;4.47;;
3561;SDS011;1795;52.074;4.754;2023-02-28T10:33:21;5.72;;;5.05;;
3561;SDS011;1795;52.074;4.754;2023-02-28T10:35:50;9.02;;;5.30;;
3561;SDS011;1795;52.074;4.754;2023-02-28T10:38:20;4.55;;;4.25;;
3561;SDS011;1795;52.074;4.754;2023-02-28T10:40:49;4.47;;;4.18;;
3561;SDS011;1795;52.074;4.754;2023-02-28T10:43:19;4.80;;;4.30;;
3561;SDS011;1795;52.074;4.754;2023-02-28T10:45:53;4.20;;;3.90;;
3561;SDS011;1795;52.074;4.754;2023-02-28T10:48:29;3.35;;;3.05;;
3561;SDS011;1795;52.074;4.754;2023-02-28T10:51:00;4.50;;;4.10;;
3561;SDS011;1795;52.074;4.754;2023-02-28T10:53:34;4.30;;;4.00;;
3561;SDS011;1795;52.074;4.754;2023-02-28T10:56:25;3.33;;;3.13;;
3561;SDS011;1795;52.074;4.754;2023-02-28T10:58:55;3.95;;;3.60;;
3561;SDS011;1795;52.074;4.754;2023-02-28T11:01:36;3.55;;;3.25;;
3561;SDS011;1795;52.074;4.754;2023-02-28T11:04:18;3.33;;;3.13;;
3561;SDS011;1795;52.074;4.754;2023-02-28T11:07:03;4.18;;;3.88;;
3561;SDS011;1795;52.074;4.754;2023-02-28T11:09:33;4.07;;;3.67;;
3561;SDS011;1795;52.074;4.754;2023-02-28T11:12:03;4.47;;;3.70;;
3561;SDS011;1795;52.074;4.754;2023-02-28T11:14:33;2.80;;;2.60;;
3561;SDS011;1795;52.074;4.754;2023-02-28T11:17:13;3.60;;;3.30;;
3561;SDS011;1795;52.074;4.754;2023-02-28T11:19:47;5.13;;;3.15;;
3561;SDS011;1795;52.074;4.754;2023-02-28T11:22:18;3.60;;;3.30;;
3561;SDS011;1795;52.074;4.754;2023-02-28T11:24:49;3.97;;;3.67;;
3561;SDS011;1795;52.074;4.754;2023-02-28T11:27:24;3.35;;;3.15;;
3561;SDS011;1795;52.074;4.754;2023-02-28T11:30:22;2.88;;;2.67;;
3561;SDS011;1795;52.074;4.754;2023-02-28T11:32:53;4.18;;;2.92;;
3561;SDS011;1795;52.074;4.754;2023-02-28T11:35:23;3.10;;;2.90;;
3561;SDS011;1795;52.074;4.754;2023-02-28T11:37:54;5.45;;;2.47;;
3561;SDS011;1795;52.074;4.754;2023-02-28T11:40:24;3.55;;;3.25;;
3561;SDS011;1795;52.074;4.754;2023-02-28T11:43:02;3.90;;;3.60;;
3561;SDS011;1795;52.074;4.754;2023-02-28T11:45:45;3.20;;;2.90;;
3561;SDS011;1795;52.074;4.754;2023-02-28T11:48:26;3.05;;;2.85;;
3561;SDS011;1795;52.074;4.754;2023-02-28T11:51:03;2.80;;;2.60;;
3561;SDS011;1795;52.074;4.754;2023-02-28T11:53:47;3.40;;;3.20;;
3561;SDS011;1795;52.074;4.754;2023-02-28T11:56:30;3.50;;;2.90;;
3561;SDS011;1795;52.074;4.754;2023-02-28T11:59:08;3.97;;;3.78;;
3561;SDS011;1795;52.074;4.754;2023-02-28T12:02:04;4.20;;;4.00;;
3561;SDS011;1795;52.074;4.754;2023-02-28T12:04:50;3.35;;;3.15;;
3561;SDS011;1795;52.074;4.754;2023-02-28T12:07:26;3.28;;;3.08;;
3561;SDS011;1795;52.074;4.754;2023-02-28T12:10:03;3.25;;;2.97;;
3561;SDS011;1795;52.074;4.754;2023-02-28T12:12:43;3.40;;;3.20;;
3561;SDS011;1795;52.074;4.754;2023-02-28T12:15:34;3.40;;;3.10;;
3561;SDS011;1795;52.074;4.754;2023-02-28T12:18:35;5.70;;;3.90;;
3561;SDS011;1795;52.074;4.754;2023-02-28T12:21:18;5.03;;;3.77;;
3561;SDS011;1795;52.074;4.754;2023-02-28T12:24:00;3.33;;;3.22;;
3561;SDS011;1795;52.074;4.754;2023-02-28T12:26:41;3.60;;;3.40;;
3561;SDS011;1795;52.074;4.754;2023-02-28T12:29:13;3.50;;;3.30;;
3561;SDS011;1795;52.074;4.754;2023-02-28T12:31:46;3.53;;;3.33;;
3561;SDS011;1795;52.074;4.754;2023-02-28T12:34:18;3.50;;;3.30;;
3561;SDS011;1795;52.074;4.754;2023-02-28T12:36:51;4.03;;;3.72;;
3561;SDS011;1795;52.074;4.754;2023-02-28T12:39:23;4.20;;;3.90;;
3561;SDS011;1795;52.074;4.754;2023-02-28T12:42:03;3.53;;;3.22;;
3561;SDS011;1795;52.074;4.754;2023-02-28T12:44:37;3.30;;;3.10;;
3561;SDS011;1795;52.074;4.754;2023-02-28T12:47:12;3.30;;;3.10;;
3561;SDS011;1795;52.074;4.754;2023-02-28T12:49:43;3.60;;;3.30;;
3561;SDS011;1795;52.074;4.754;2023-02-28T12:52:19;3.42;;;3.22;;
3561;SDS011;1795;52.074;4.754;2023-02-28T12:54:52;4.50;;;3.77;;
3561;SDS011;1795;52.074;4.754;2023-02-28T12:57:31;3.97;;;3.78;;
3561;SDS011;1795;52.074;4.754;2023-02-28T13:00:03;3.97;;;3.67;;
3561;SDS011;1795;52.074;4.754;2023-02-28T13:02:57;2.95;;;2.85;;
3561;SDS011;1795;52.074;4.754;2023-02-28T13:06:10;5.00;;;3.38;;
3561;SDS011;1795;52.074;4.754;2023-02-28T13:09:06;3.70;;;3.40;;
3561;SDS011;1795;52.074;4.754;2023-02-28T13:11:40;3.90;;;3.60;;
3561;SDS011;1795;52.074;4.754;2023-02-28T13:14:23;4.18;;;3.90;;
3561;SDS011;1795;52.074;4.754;2023-02-28T13:16:59;3.70;;;3.50;;
3561;SDS011;1795;52.074;4.754;2023-02-28T13:19:30;3.60;;;3.40;;
3561;SDS011;1795;52.074;4.754;2023-02-28T13:22:00;3.60;;;3.30;;
3561;SDS011;1795;52.074;4.754;2023-02-28T13:24:38;3.90;;;3.50;;
3561;SDS011;1795;52.074;4.754;2023-02-28T13:30:49;3.03;;;2.83;;
3561;SDS011;1795;52.074;4.754;2023-02-28T13:33:21;3.60;;;3.30;;
3561;SDS011;1795;52.074;4.754;2023-02-28T13:36:10;4.30;;;4.00;;
3561;SDS011;1795;52.074;4.754;2023-02-28T13:38:50;3.67;;;3.30;;
3561;SDS011;1795;52.074;4.754;2023-02-28T13:44:14;2.90;;;2.80;;
3561;SDS011;1795;52.074;4.754;2023-02-28T13:49:49;3.03;;;2.72;;
3561;SDS011;1795;52.074;4.754;2023-02-28T13:52:20;3.90;;;3.60;;
3561;SDS011;1795;52.074;4.754;2023-02-28T13:54:53;3.92;;;3.63;;
3561;SDS011;1795;52.074;4.754;2023-02-28T13:57:44;7.80;;;2.97;;
3561;SDS011;1795;52.074;4.754;2023-02-28T14:00:25;3.08;;;2.88;;
3561;SDS011;1795;52.074;4.754;2023-02-28T14:03:07;3.20;;;2.90;;
3561;SDS011;1795;52.074;4.754;2023-02-28T14:05:45;3.20;;;3.00;;
3561;SDS011;1795;52.074;4.754;2023-02-28T14:08:16;2.80;;;2.60;;
3561;SDS011;1795;52.074;4.754;2023-02-28T14:10:48;3.30;;;3.00;;
3561;SDS011;1795;52.074;4.754;2023-02-28T14:13:38;3.80;;;3.50;;
3561;SDS011;1795;52.074;4.754;2023-02-28T14:16:11;3.58;;;3.28;;
3561;SDS011;1795;52.074;4.754;2023-02-28T14:18:42;3.33;;;3.13;;
3561;SDS011;1795;52.074;4.754;2023-02-28T14:21:20;3.40;;;2.42;;
3561;SDS011;1795;52.074;4.754;2023-02-28T14:27:05;2.90;;;2.60;;
3561;SDS011;1795;52.074;4.754;2023-02-28T14:29:54;2.85;;;2.70;;
3561;SDS011;1795;52.074;4.754;2023-02-28T14:32:33;2.75;;;2.60;;
3561;SDS011;1795;52.074;4.754;2023-02-28T14:35:13;3.60;;;3.30;;
3561;SDS011;1795;52.074;4.754;2023-02-28T14:37:49;3.00;;;2.80;;
3561;SDS011;1795;52.074;4.754;2023-02-28T14:40:19;2.63;;;2.53;;
3561;SDS011;1795;52.074;4.754;2023-02-28T14:42:54;3.00;;;2.70;;
3561;SDS011;1795;52.074;4.754;2023-02-28T14:45:24;5.38;;;3.25;;
3561;SDS011;1795;52.074;4.754;2023-02-28T14:47:55;2.92;;;2.60;;
3561;SDS011;1795;52.074;4.754;2023-02-28T14:50:27;2.60;;;2.50;;
3561;SDS011;1795;52.074;4.754;2023-02-28T14:52:57;3.40;;;3.20;;
3561;SDS011;1795;52.074;4.754;2023-02-28T14:55:27;4.50;;;3.17;;
3561;SDS011;1795;52.074;4.754;2023-02-28T14:57:57;3.50;;;3.20;;
3561;SDS011;1795;52.074;4.754;2023-02-28T15:00:30;3.17;;;2.88;;
3561;SDS011;1795;52.074;4.754;2023-02-28T15:03:00;2.70;;;2.50;;
3561;SDS011;1795;52.074;4.754;2023-02-28T15:05:50;2.70;;;2.50;;
3561;SDS011;1795;52.074;4.754;2023-02-28T15:08:20;2.95;;;2.75;;
3561;SDS011;1795;52.074;4.754;2023-02-28T15:10:53;2.78;;;2.58;;
3561;SDS011;1795;52.074;4.754;2023-02-28T15:13:23;3.50;;;3.30;;
3561;SDS011;1795;52.074;4.754;2023-02-28T15:16:05;3.83;;;3.45;;
3561;SDS011;1795;52.074;4.754;2023-02-28T15:18:41;3.50;;;3.20;;
3561;SDS011;1795;52.074;4.754;2023-02-28T15:21:13;3.40;;;3.10;;
3561;SDS011;1795;52.074;4.754;2023-02-28T15:23:45;3.63;;;3.33;;
3561;SDS011;1795;52.074;4.754;2023-02-28T15:26:16;3.20;;;2.90;;
3561;SDS011;1795;52.074;4.754;2023-02-28T15:28:48;3.50;;;3.20;;
3561;SDS011;1795;52.074;4.754;2023-02-28T15:31:21;3.38;;;3.08;;
3561;SDS011;1795;52.074;4.754;2023-02-28T15:33:53;4.18;;;3.78;;
3561;SDS011;1795;52.074;4.754;2023-02-28T15:36:24;4.57;;;4.18;;
3561;SDS011;1795;52.074;4.754;2023-02-28T15:38:55;4.50;;;4.10;;
3561;SDS011;1795;52.074;4.754;2023-02-28T15:41:40;4.15;;;3.72;;
3561;SDS011;1795;52.074;4.754;2023-02-28T15:44:24;4.03;;;3.50;;
3561;SDS011;1795;52.074;4.754;2023-02-28T15:47:00;4.10;;;3.80;;
3561;SDS011;1795;52.074;4.754;2023-02-28T15:49:33;3.50;;;3.30;;
3561;SDS011;1795;52.074;4.754;2023-02-28T15:52:11;3.80;;;3.50;;
3561;SDS011;1795;52.074;4.754;2023-02-28T15:54:43;4.90;;;4.50;;
3561;SDS011;1795;52.074;4.754;2023-02-28T15:57:13;6.55;;;4.78;;
3561;SDS011;1795;52.074;4.754;2023-02-28T15:59:48;4.15;;;3.78;;
3561;SDS011;1795;52.074;4.754;2023-02-28T16:02:20;3.65;;;3.40;;
3561;SDS011;1795;52.074;4.754;2023-02-28T16:05:00;6.05;;;3.78;;
3561;SDS011;1795;52.074;4.754;2023-02-28T16:07:41;4.00;;;3.70;;